New Bedford Regional Airport
KEWB : now visible

Airfield :











YOU CAN JOIN US ON...

 
LOGIN :

Register | Disclaimer

   EN    FR    IT 

 









Legend :    VFR   Marginal VFR   IFR   Intensive IFR   Very Intensive IFR
Visi :
Ceiling :
>= 8 km
>= 3000ft
5 to 8 km
1000 to 3000 ft
1500m to 5 km
500 to 1000 ft
800 to 1500m
200 to 500 ft
< 800m
< 200 ft
Symbols :   Thunderstorms  Fog  Heavy snow  Heavy precipitations  Wind > 20 kt






- Airport Elevation : 80 ft
- IATA code : EWB


KEWB - New Bedford Regional

CURRENT METAR :
  • 221053Z 21007KT 2SM BR OVC003 21/21 A2965 RMK AO2 TWR VIS 4 SLP040 T02060206

EXPIRED METARs :
  • 221011Z AUTO 16003KT 2 1/2SM BR OVC002 20/20 A2961 RMK AO2 TWR VIS 4 T02000200
  • 220953Z AUTO VRB04KT 3SM BR OVC002 20/20 A2962 RMK AO2 TWR VIS 4 SLP029 T02000200
  • 220941Z AUTO 23004KT 2 1/2SM BR OVC002 20/20 A2962 RMK AO2 TWR VIS 4 T02000200
  • 220929Z AUTO 20004KT 1 1/2SM BR OVC002 20/20 A2962 RMK AO2 TWR VIS 4 T02000200
  • 220920Z AUTO 20006KT 2SM R05/6000VP6000FT BR OVC002 20/20 A2962 RMK AO2 TWR VIS 4 T02000200
  • 220853Z AUTO 19006KT 3SM BR OVC002 21/20 A2961 RMK AO2 TWR VIS 4 SLP026 T02060200 58003

TAF N/A
KZBW FIR / North America



MET'MAP, your aeronautical weather chart ! - Copyright ORBIFLY December 2007 - Disclaimer

ORBIFLY MET'MAP TEAM :

Programming & Development : Alexandra Zaïnal
Concept & original design : Baudouin d'Aumeries
Assistance for programming : Marc-Olivier Méhu
Technical & hardware support : Manuel Goepfert

Contact : metmap@orbifly.com




SOURCES & CREDITS :

   NOAA       Earth
Advisory